DW7160 La Colilla ES current weather conditions

sailwx.info

Wind from 281

Air temperature -0.0° C
Dewpoint -1.4° C

Last reported at 2018-Feb-18 04:10 UTC.
Time now 2018-Feb-18 05:13 UTC

Location: N 40°39' W 004°46'.
View on Google Maps.

See reports from other nearby stations

  
Tides and Currents Weather Stations Pressure Air Temp Water Temp Dewpoint Dewpoint Depression Visibility Wind Speed Wind Dir Waves Ship Positions
date/time (UTC)wind fromknots sea level pressurealtimeterstation pressurevisibilityair tempwater tempwave heightnotes
2018-Feb-18 04:10 281 -0.0
2018-Feb-18 04:00 281 0 gusting 3 -0.0
2018-Feb-18 03:50 280 0 gusting 2 -0.0
2018-Feb-18 03:40 280 0 gusting 2 0.6
2018-Feb-18 03:30 280 0 gusting 2 0.6
2018-Feb-18 03:20 280 0.6
2018-Feb-18 03:10 280 1.1
2018-Feb-18 03:00 280 1.1
2018-Feb-18 02:50 280 0.6
2018-Feb-18 02:40 280 0.6
2018-Feb-18 02:30 292 0 gusting 2 0.6
2018-Feb-18 02:20 300 0.6
2018-Feb-18 02:10 300 -0.0
2018-Feb-18 02:00 300 -0.0
2018-Feb-18 01:50 300 0.6
2018-Feb-18 01:40 300 0.6
2018-Feb-18 01:30 299 1 gusting 4 0.6
2018-Feb-18 01:20 306 2 gusting 6 0.6
2018-Feb-18 01:10 315 2 gusting 4 0.6
2018-Feb-18 01:00 314 2 gusting 4 0.6
2018-Feb-18 00:50 312 3 gusting 6 0.6
2018-Feb-18 00:40 319 1 gusting 4 0.6
2018-Feb-18 00:30 318 2 gusting 4 1.1
2018-Feb-18 00:20 314 1 gusting 5 1.1
2018-Feb-18 00:10 300 0 gusting 3 1.1
2018-Feb-18 00:00 294 1 gusting 3 1.1
2018-Feb-17 23:50 290 1 gusting 2 1.1
2018-Feb-17 23:40 292 1 gusting 3 1.1
2018-Feb-17 23:30 310 1 gusting 4 1.1
2018-Feb-17 23:20 327 2 gusting 6 1.7
2018-Feb-17 23:10 311 1 gusting 4 1.7
2018-Feb-17 23:00 316 0 gusting 2 1.7
2018-Feb-17 22:50 315 0 gusting 3 1.7
2018-Feb-17 22:40 317 1 gusting 4 2.2
2018-Feb-17 22:30 345 2 gusting 5 2.2
2018-Feb-17 22:20 346 3 gusting 6 2.8
2018-Feb-17 22:10 356 4 gusting 8 2.8
2018-Feb-17 22:00 346 2 gusting 5 2.8
2018-Feb-17 21:50 002 5 gusting 7 3.3
2018-Feb-17 21:40 358 5 gusting 8 3.3
2018-Feb-17 21:30 005 6 gusting 11 3.3
2018-Feb-17 21:20 002 6 gusting 8 3.3
2018-Feb-17 21:10 005 7 gusting 11 3.3
2018-Feb-17 21:00 006 7 gusting 12 3.9
2018-Feb-17 20:50 008 7 gusting 11 3.9
2018-Feb-17 20:40 006 7 gusting 10 3.9
2018-Feb-17 20:30 003 8 gusting 12 4.4
2018-Feb-17 20:20 360 8 gusting 13 4.4
2018-Feb-17 20:10 004 8 gusting 12 4.4
2018-Feb-17 20:00 005 8 gusting 12 4.4
2018-Feb-17 19:50 007 9 gusting 14 5.0
2018-Feb-17 19:40 007 9 gusting 13 5.0
2018-Feb-17 19:30 005 8 gusting 13 5.0
2018-Feb-17 19:20 001 7 gusting 10 5.0
2018-Feb-17 19:10 358 6 gusting 11 5.0
2018-Feb-17 19:00 360 7 gusting 12 5.0
2018-Feb-17 18:50 360 7 gusting 13 5.0
2018-Feb-17 18:40 006 8 gusting 12 5.6
2018-Feb-17 18:30 006 7 gusting 11 5.6
2018-Feb-17 18:20 005 6 gusting 10 5.6
2018-Feb-17 18:10 008 7 gusting 11 5.6
2018-Feb-17 18:00 004 6 gusting 9 5.6
2018-Feb-17 17:50 005 6 gusting 10 6.1
2018-Feb-17 17:40 004 6 gusting 8 6.1
2018-Feb-17 17:30 006 6 gusting 10 6.1
2018-Feb-17 17:20 002 6 gusting 10 6.1
2018-Feb-17 17:10 359 6 gusting 10 6.1
2018-Feb-17 17:00 356 6 gusting 9 6.1
2018-Feb-17 16:50 358 6 gusting 11 6.1
2018-Feb-17 16:40 358 7 gusting 12 6.1
2018-Feb-17 16:30 353 6 gusting 13 6.1
2018-Feb-17 16:20 349 4 gusting 8 6.7
2018-Feb-17 16:10 345 3 gusting 6 6.7
2018-Feb-17 16:00 352 4 gusting 7 6.7
2018-Feb-17 15:50 350 3 gusting 6 7.2
2018-Feb-17 15:40 004 5 gusting 7 6.7
2018-Feb-17 15:30 003 6 gusting 9 6.7
2018-Feb-17 15:20 002 3 gusting 6 6.7
2018-Feb-17 15:10 355 2 gusting 6 6.7
2018-Feb-17 15:00 347 2 gusting 6 6.7
2018-Feb-17 14:50 356 4 gusting 7 6.7
2018-Feb-17 14:40 345 3 gusting 6 6.7
2018-Feb-17 14:30 341 2 gusting 6 6.7
2018-Feb-17 14:20 358 3 gusting 7 6.7
2018-Feb-17 14:10 344 2 gusting 5 6.7
2018-Feb-17 14:00 358 2 gusting 4 6.1
2018-Feb-17 13:50 360 2 gusting 4 6.1
2018-Feb-17 13:40 356 2 gusting 5 6.1
2018-Feb-17 13:30 357 3 gusting 5 6.1
2018-Feb-17 13:20 351 2 gusting 6 6.1
2018-Feb-17 13:10 331 1 gusting 5 5.6
2018-Feb-17 13:00 340 2 gusting 6 5.6
2018-Feb-17 12:50 001 3 gusting 6 5.6
2018-Feb-17 12:40 330 2 gusting 4 5.6
2018-Feb-17 12:30 325 2 gusting 4 5.6
2018-Feb-17 12:20 336 1 gusting 4 5.6
2018-Feb-17 12:10 338 2 gusting 5 5.6
2018-Feb-17 12:00 348 2 gusting 5 5.6
2018-Feb-17 11:50 340 2 gusting 6 5.6
2018-Feb-17 11:40 001 4 gusting 7 5.6
2018-Feb-17 11:30 353 4 gusting 8 5.6
2018-Feb-17 11:20 354 4 gusting 7 5.6
2018-Feb-17 11:10 353 4 gusting 10 5.6
2018-Feb-17 10:50 354 4 gusting 6 6.1
2018-Feb-17 10:40 360 5 gusting 8 6.7
2018-Feb-17 10:30 351 3 gusting 6 6.7
2018-Feb-17 10:20 325 2 gusting 5 6.7
2018-Feb-17 10:10 329 2 gusting 5 6.7
2018-Feb-17 10:00 330 1 gusting 5 6.7
2018-Feb-17 09:50 323 1 gusting 5 6.7
2018-Feb-17 09:40 342 1 gusting 4 6.7
2018-Feb-17 09:30 327 0 gusting 3 6.7
2018-Feb-17 09:20 304 0 gusting 3 6.7
2018-Feb-17 09:10 290 0 gusting 3 6.1
2018-Feb-17 09:00 244 0 gusting 2 6.1
2018-Feb-17 08:50 250 0 gusting 3 5.6
2018-Feb-17 08:40 214 1 gusting 4 5.6
2018-Feb-17 08:30 212 1 gusting 3 6.1
2018-Feb-17 08:20 277 0 gusting 2 6.1
2018-Feb-17 08:10 273 0 gusting 3 5.6
2018-Feb-17 08:00 268 0 gusting 2 5.6
2018-Feb-17 07:50 273 0 gusting 4 5.6
2018-Feb-17 07:40 242 5.6
2018-Feb-17 07:30 254 0 gusting 2 5.6
2018-Feb-17 07:20 294 5.6
2018-Feb-17 07:10 295 0 gusting 3 5.6
2018-Feb-17 07:00 299 0 gusting 2 5.6
2018-Feb-17 06:50 299 0 gusting 3 5.6
2018-Feb-17 06:40 279 0 gusting 3 5.6
2018-Feb-17 06:30 274 5.6
2018-Feb-17 06:20 274 5.0
2018-Feb-17 06:10 274 0 gusting 2 5.0
2018-Feb-17 06:00 266 0 gusting 3 5.0
2018-Feb-17 05:50 257 5.0
2018-Feb-17 05:40 257 5.6
2018-Feb-17 05:30 257 5.6
2018-Feb-17 05:20 257 6.1
2018-Feb-17 05:10 257 6.1
2018-Feb-17 05:00 257 0 gusting 2 6.1
2018-Feb-17 04:50 258 6.1
2018-Feb-17 04:40 257 0 gusting 3 6.1
2018-Feb-17 04:30 256 6.1
2018-Feb-17 04:20 256 0 gusting 2 6.1
2018-Feb-17 04:10 256 6.1
2018-Feb-17 04:00 256 6.1
2018-Feb-17 03:50 252 0 gusting 3 6.1
2018-Feb-17 03:40 216 0 gusting 3 5.6
2018-Feb-17 03:30 212 1 gusting 4 5.6
2018-Feb-17 03:20 209 2 gusting 5 5.6
2018-Feb-17 03:10 205 4 gusting 6 5.6
2018-Feb-17 03:00 205 3 gusting 5 5.6
2018-Feb-17 02:50 203 4 gusting 6 5.6
2018-Feb-17 02:40 205 4 gusting 6 5.0
2018-Feb-17 02:30 205 4 gusting 6 5.0
2018-Feb-17 02:20 206 4 gusting 6 5.0
2018-Feb-17 02:10 207 3 gusting 6 5.0
2018-Feb-17 02:00 207 2 gusting 5 5.0
2018-Feb-17 01:50 199 3 gusting 5 5.6
2018-Feb-17 01:40 200 3 gusting 5 5.6
2018-Feb-17 01:30 230 0 gusting 4 5.6
2018-Feb-17 01:20 254 0 gusting 2 5.6
2018-Feb-17 01:10 248 0 gusting 4 6.1
2018-Feb-17 01:00 228 6.1
2018-Feb-17 00:50 228 1 gusting 3 6.1
2018-Feb-17 00:40 228 6.1
2018-Feb-17 00:30 228 6.7
2018-Feb-17 00:20 228 6.7
2018-Feb-17 00:10 228 0 gusting 3 6.7
2018-Feb-17 00:00 230 2 gusting 3 6.7
2018-Feb-16 23:50 232 0 gusting 3 6.7
2018-Feb-16 23:40 232 6.7
2018-Feb-16 23:30 232 6.7
2018-Feb-16 23:20 232 6.7
2018-Feb-16 23:10 232 6.7
2018-Feb-16 23:00 232 7.2
2018-Feb-16 22:50 233 0 gusting 3 7.2
2018-Feb-16 22:40 233 1 gusting 3 7.2
2018-Feb-16 22:30 233 1 gusting 3 7.8
2018-Feb-16 22:20 233 1 gusting 3 7.8
2018-Feb-16 22:10 234 1 gusting 3 7.8
2018-Feb-16 22:00 242 0 gusting 3 8.3
2018-Feb-16 21:50 267 1 gusting 4 8.9
2018-Feb-16 21:40 225 0 gusting 2 8.9
2018-Feb-16 21:30 224 8.9
2018-Feb-16 21:20 224 0 gusting 2 9.4
2018-Feb-16 21:10 224 9.4
2018-Feb-16 21:00 224 9.4
2018-Feb-16 20:50 224 9.4
2018-Feb-16 20:40 224 0 gusting 2 9.4
2018-Feb-16 20:30 224 0 gusting 2 10.0
2018-Feb-16 20:20 238 1 gusting 2 10.0
2018-Feb-16 20:10 249 0 gusting 3 10.0
2018-Feb-16 20:00 251 1 gusting 5 10.0
2018-Feb-16 19:50 248 1 gusting 4 10.0
2018-Feb-16 19:40 249 0 gusting 4 10.0
2018-Feb-16 19:30 270 0 gusting 5 10.6
2018-Feb-16 19:20 246 2 gusting 6 10.6
2018-Feb-16 19:10 205 1 gusting 5 10.6
2018-Feb-16 19:00 360 0 gusting 2 10.6
2018-Feb-16 18:50 360 0 gusting 2 10.6
2018-Feb-16 18:40 359 1 gusting 5 11.1
2018-Feb-16 18:30 329 2 gusting 5 11.1
2018-Feb-16 18:20 320 1 gusting 3 11.1
2018-Feb-16 18:10 320 11.1
2018-Feb-16 18:00 320 1 gusting 3 11.1
2018-Feb-16 17:50 320 0 gusting 3 11.7
2018-Feb-16 17:40 319 1 gusting 4 11.7
2018-Feb-16 17:30 284 0 gusting 3 12.2
2018-Feb-16 17:20 180 12.2
2018-Feb-16 17:10 180 0 gusting 3 12.2
2018-Feb-16 17:00 180 12.8
2018-Feb-16 16:50 182 0 gusting 2 12.8
2018-Feb-16 16:40 182 0 gusting 2 13.3
2018-Feb-16 16:30 178 0 gusting 3 13.3
2018-Feb-16 16:20 173 0 gusting 2 13.9
2018-Feb-16 16:10 171 13.9
2018-Feb-16 16:00 171 14.4
2018-Feb-16 15:50 171 14.4
2018-Feb-16 15:40 171 13.9
2018-Feb-16 15:30 170 0 gusting 2 13.9
2018-Feb-16 15:20 169 1 gusting 4 13.9
2018-Feb-16 15:10 179 2 gusting 6 13.9
2018-Feb-16 15:00 178 2 gusting 6 14.4
2018-Feb-16 14:50 195 3 gusting 5 15.0
2018-Feb-16 14:40 177 2 gusting 5 14.4
2018-Feb-16 14:30 176 1 gusting 5 14.4
2018-Feb-16 14:20 182 1 gusting 5 13.9
2018-Feb-16 14:10 172 2 gusting 6 13.9
2018-Feb-16 14:00 168 2 gusting 6 13.3
2018-Feb-16 13:50 175 3 gusting 6 13.3
2018-Feb-16 13:40 185 3 gusting 7 12.8
2018-Feb-16 13:30 191 2 gusting 6 12.8
2018-Feb-16 13:20 191 2 gusting 6 12.2
2018-Feb-16 13:10 189 1 gusting 5 12.2
2018-Feb-16 13:00 180 1 gusting 6 11.7
2018-Feb-16 12:50 202 1 gusting 6 11.1
2018-Feb-16 12:40 195 2 gusting 6 11.1
2018-Feb-16 12:30 193 2 gusting 5 10.6
2018-Feb-16 12:20 178 2 gusting 6 10.6
2018-Feb-16 12:10 173 2 gusting 5 10.0
2018-Feb-16 12:00 182 1 gusting 4 10.0
2018-Feb-16 11:50 189 1 gusting 5 9.4
2018-Feb-16 11:40 191 2 gusting 6 8.9
2018-Feb-16 11:30 175 2 gusting 5 8.3
2018-Feb-16 11:20 160 2 gusting 4 7.8
2018-Feb-16 11:10 178 0 gusting 3 7.8
2018-Feb-16 11:00 180 0 gusting 4 7.8
2018-Feb-16 10:50 180 0 gusting 4 7.8
2018-Feb-16 10:40 180 0 gusting 3 7.2
2018-Feb-16 10:30 180 1 gusting 5 7.2
2018-Feb-16 10:20 180 1 gusting 3 7.2
2018-Feb-16 10:10 180 0 gusting 3 7.2
2018-Feb-16 10:00 180 0 gusting 3 6.7
2018-Feb-16 09:50 183 2 gusting 5 6.7
2018-Feb-16 09:40 201 2 gusting 4 6.7
2018-Feb-16 09:30 211 2 gusting 6 6.1
2018-Feb-16 09:20 206 3 gusting 6 6.1
2018-Feb-16 09:10 204 4 gusting 6 6.1
2018-Feb-16 09:00 206 4 gusting 6 6.1
2018-Feb-16 08:50 187 3 gusting 6 6.1
2018-Feb-16 08:40 204 3 gusting 5 6.1
2018-Feb-16 08:30 201 2 gusting 4 6.7
2018-Feb-16 08:20 211 1 gusting 2 6.7
2018-Feb-16 08:10 211 1 gusting 2 6.7
2018-Feb-16 08:00 211 1 gusting 3 6.1
2018-Feb-16 07:50 211 6.1
2018-Feb-16 07:40 211 6.1
2018-Feb-16 07:30 6.1
2018-Feb-16 07:20 211 0 gusting 3 6.1
2018-Feb-16 07:10 211 0 gusting 3 6.1
2018-Feb-16 07:00 216 2 gusting 4 6.1
2018-Feb-16 06:50 215 2 gusting 4 5.6
2018-Feb-16 06:40 203 3 gusting 5 5.6
2018-Feb-16 06:30 210 2 gusting 5 5.6
2018-Feb-16 06:20 215 2 gusting 5 5.6
2018-Feb-16 06:10 230 0 gusting 3 6.7
2018-Feb-16 06:00 281 6.7
2018-Feb-16 05:50 6.1
2018-Feb-16 05:40 6.1
2018-Feb-16 05:30 6.1
2018-Feb-16 05:20 281 5.6
2018-Feb-16 05:10 281 0 gusting 2 5.6
2018-Feb-16 05:00 281 0 gusting 2 5.0